sensor_id;sensor_type;location;lat;lon;timestamp;pressure;altitude;pressure_sealevel;temperature;humidity
9839;BME280;4958;48.150;11.506;2022-10-16T00:02:17;95645.28;;;16.46;88.98
9839;BME280;4958;48.150;11.506;2022-10-16T00:04:44;95644.50;;;16.45;88.81
9839;BME280;4958;48.150;11.506;2022-10-16T00:07:10;95646.09;;;16.46;89.13
9839;BME280;4958;48.150;11.506;2022-10-16T00:09:37;95641.31;;;16.43;88.89
9839;BME280;4958;48.150;11.506;2022-10-16T00:12:04;95650.47;;;16.46;89.05
9839;BME280;4958;48.150;11.506;2022-10-16T00:14:32;95651.91;;;16.42;89.19
9839;BME280;4958;48.150;11.506;2022-10-16T00:16:58;95641.31;;;16.43;89.15
9839;BME280;4958;48.150;11.506;2022-10-16T00:19:24;95644.69;;;16.44;88.79
9839;BME280;4958;48.150;11.506;2022-10-16T00:21:51;95640.50;;;16.43;88.99
9839;BME280;4958;48.150;11.506;2022-10-16T00:24:17;95639.72;;;16.42;88.56
9839;BME280;4958;48.150;11.506;2022-10-16T00:26:44;95644.09;;;16.42;88.54
9839;BME280;4958;48.150;11.506;2022-10-16T00:29:12;95645.13;;;16.41;88.64
9839;BME280;4958;48.150;11.506;2022-10-16T00:31:38;95648.50;;;16.41;88.60
9839;BME280;4958;48.150;11.506;2022-10-16T00:34:04;95646.13;;;16.40;88.59
9839;BME280;4958;48.150;11.506;2022-10-16T00:36:31;95632.53;;;16.38;88.71
9839;BME280;4958;48.150;11.506;2022-10-16T00:38:58;95639.41;;;16.32;89.05
9839;BME280;4958;48.150;11.506;2022-10-16T00:41:26;95635.41;;;16.30;89.28
9839;BME280;4958;48.150;11.506;2022-10-16T00:43:55;95643.03;;;16.24;89.78
9839;BME280;4958;48.150;11.506;2022-10-16T00:46:25;95657.22;;;16.22;90.04
9839;BME280;4958;48.150;11.506;2022-10-16T00:48:57;95657.03;;;16.23;90.13
9839;BME280;4958;48.150;11.506;2022-10-16T00:51:30;95652.41;;;16.26;90.25
9839;BME280;4958;48.150;11.506;2022-10-16T00:53:58;95656.19;;;16.30;90.08
9839;BME280;4958;48.150;11.506;2022-10-16T00:56:25;95651.38;;;16.33;89.64
9839;BME280;4958;48.150;11.506;2022-10-16T00:58:52;95644.19;;;16.35;89.63
9839;BME280;4958;48.150;11.506;2022-10-16T01:01:18;95646.31;;;16.38;89.39
9839;BME280;4958;48.150;11.506;2022-10-16T01:03:46;95657.31;;;16.40;89.17
9839;BME280;4958;48.150;11.506;2022-10-16T01:06:22;95660.13;;;16.39;89.06
9839;BME280;4958;48.150;11.506;2022-10-16T01:08:58;95660.72;;;16.41;88.80
9839;BME280;4958;48.150;11.506;2022-10-16T01:11:31;95663.91;;;16.43;88.51
9839;BME280;4958;48.150;11.506;2022-10-16T01:14:03;95666.50;;;16.43;88.61
9839;BME280;4958;48.150;11.506;2022-10-16T01:16:35;95664.69;;;16.43;88.05
9839;BME280;4958;48.150;11.506;2022-10-16T01:19:09;95672.28;;;16.45;88.38
9839;BME280;4958;48.150;11.506;2022-10-16T01:21:40;95671.06;;;16.47;88.26
9839;BME280;4958;48.150;11.506;2022-10-16T01:24:12;95667.50;;;16.42;88.41
9839;BME280;4958;48.150;11.506;2022-10-16T01:27:07;95675.34;;;16.35;88.27
9839;BME280;4958;48.150;11.506;2022-10-16T01:29:39;95676.97;;;16.30;88.72
9839;BME280;4958;48.150;11.506;2022-10-16T01:32:11;95674.38;;;16.30;88.54
9839;BME280;4958;48.150;11.506;2022-10-16T01:34:45;95673.00;;;16.27;88.86
9839;BME280;4958;48.150;11.506;2022-10-16T01:37:18;95668.59;;;16.28;88.57
9839;BME280;4958;48.150;11.506;2022-10-16T01:39:48;95673.41;;;16.24;88.73
9839;BME280;4958;48.150;11.506;2022-10-16T01:42:20;95665.22;;;16.20;88.84
9839;BME280;4958;48.150;11.506;2022-10-16T01:44:48;95661.84;;;16.20;88.53
9839;BME280;4958;48.150;11.506;2022-10-16T01:47:18;95656.25;;;16.16;88.90
9839;BME280;4958;48.150;11.506;2022-10-16T01:49:48;95657.72;;;16.12;89.03
9839;BME280;4958;48.150;11.506;2022-10-16T01:52:19;95657.94;;;16.04;89.77
9839;BME280;4958;48.150;11.506;2022-10-16T01:54:50;95658.13;;;16.09;89.41
9839;BME280;4958;48.150;11.506;2022-10-16T01:57:21;95649.53;;;16.09;89.32
9839;BME280;4958;48.150;11.506;2022-10-16T01:59:52;95652.72;;;16.11;89.42
9839;BME280;4958;48.150;11.506;2022-10-16T02:02:22;95637.31;;;16.16;89.04
9839;BME280;4958;48.150;11.506;2022-10-16T02:04:51;95648.66;;;16.21;88.86
9839;BME280;4958;48.150;11.506;2022-10-16T02:07:19;95642.81;;;16.26;88.21
9839;BME280;4958;48.150;11.506;2022-10-16T02:09:46;95644.22;;;16.29;87.88
9839;BME280;4958;48.150;11.506;2022-10-16T02:12:16;95645.81;;;16.30;87.75
9839;BME280;4958;48.150;11.506;2022-10-16T02:14:45;95653.38;;;16.31;87.61
9839;BME280;4958;48.150;11.506;2022-10-16T02:17:13;95652.00;;;16.29;87.56
9839;BME280;4958;48.150;11.506;2022-10-16T02:19:42;95658.22;;;16.28;87.58
9839;BME280;4958;48.150;11.506;2022-10-16T02:22:13;95646.63;;;16.23;87.97
9839;BME280;4958;48.150;11.506;2022-10-16T02:24:49;95643.81;;;16.25;87.95
9839;BME280;4958;48.150;11.506;2022-10-16T02:27:22;95644.03;;;16.23;87.96
9839;BME280;4958;48.150;11.506;2022-10-16T02:29:55;95646.63;;;16.23;87.64
9839;BME280;4958;48.150;11.506;2022-10-16T02:32:28;95646.44;;;16.25;87.22
9839;BME280;4958;48.150;11.506;2022-10-16T02:34:56;95663.59;;;16.26;87.08
9839;BME280;4958;48.150;11.506;2022-10-16T02:37:24;95658.44;;;16.19;87.05
9839;BME280;4958;48.150;11.506;2022-10-16T02:39:52;95664.81;;;16.23;87.18
9839;BME280;4958;48.150;11.506;2022-10-16T02:42:19;95662.00;;;16.25;86.57
9839;BME280;4958;48.150;11.506;2022-10-16T02:44:46;95668.00;;;16.26;86.58
9839;BME280;4958;48.150;11.506;2022-10-16T02:47:14;95669.78;;;16.32;86.40
9839;BME280;4958;48.150;11.506;2022-10-16T02:49:40;95672.38;;;16.32;85.69
9839;BME280;4958;48.150;11.506;2022-10-16T02:52:06;95666.97;;;16.33;85.72
9839;BME280;4958;48.150;11.506;2022-10-16T02:54:33;95679.38;;;16.31;85.45
9839;BME280;4958;48.150;11.506;2022-10-16T02:56:59;95681.38;;;16.29;85.00
9839;BME280;4958;48.150;11.506;2022-10-16T02:59:26;95679.38;;;16.31;84.98
9839;BME280;4958;48.150;11.506;2022-10-16T03:01:52;95677.19;;;16.28;85.05
9839;BME280;4958;48.150;11.506;2022-10-16T03:04:20;95666.41;;;16.24;84.64
9839;BME280;4958;48.150;11.506;2022-10-16T03:06:46;95673.19;;;16.26;84.65
9839;BME280;4958;48.150;11.506;2022-10-16T03:09:13;95662.63;;;16.20;84.64
9839;BME280;4958;48.150;11.506;2022-10-16T03:11:40;95672.03;;;16.21;84.80
9839;BME280;4958;48.150;11.506;2022-10-16T03:14:06;95666.25;;;16.19;84.95
9839;BME280;4958;48.150;11.506;2022-10-16T03:16:33;95661.84;;;16.20;85.03
9839;BME280;4958;48.150;11.506;2022-10-16T03:18:59;95664.84;;;16.17;84.75
9839;BME280;4958;48.150;11.506;2022-10-16T03:21:27;95663.03;;;16.17;84.93
9839;BME280;4958;48.150;11.506;2022-10-16T03:23:53;95670.28;;;16.15;84.86
9839;BME280;4958;48.150;11.506;2022-10-16T03:26:20;95677.28;;;16.15;84.83
9839;BME280;4958;48.150;11.506;2022-10-16T03:28:46;95670.28;;;16.15;85.06
9839;BME280;4958;48.150;11.506;2022-10-16T03:31:13;95673.88;;;16.14;84.64
9839;BME280;4958;48.150;11.506;2022-10-16T03:33:39;95666.09;;;16.14;84.58
9839;BME280;4958;48.150;11.506;2022-10-16T03:36:06;95672.09;;;16.15;84.76
9839;BME280;4958;48.150;11.506;2022-10-16T03:38:34;95676.47;;;16.14;84.40
9839;BME280;4958;48.150;11.506;2022-10-16T03:41:00;95675.88;;;16.12;84.62
9839;BME280;4958;48.150;11.506;2022-10-16T03:43:27;95676.88;;;16.11;84.36
9839;BME280;4958;48.150;11.506;2022-10-16T03:45:53;95692.63;;;16.16;84.17
9839;BME280;4958;48.150;11.506;2022-10-16T03:48:20;95686.00;;;16.20;84.18
9839;BME280;4958;48.150;11.506;2022-10-16T03:50:46;95688.22;;;16.17;83.91
9839;BME280;4958;48.150;11.506;2022-10-16T03:53:14;95686.22;;;16.19;83.88
9839;BME280;4958;48.150;11.506;2022-10-16T03:55:42;95686.59;;;16.22;83.61
9839;BME280;4958;48.150;11.506;2022-10-16T03:58:09;95677.44;;;16.20;83.31
9839;BME280;4958;48.150;11.506;2022-10-16T04:00:40;95681.22;;;16.24;83.70
9839;BME280;4958;48.150;11.506;2022-10-16T04:03:06;95675.59;;;16.27;83.61
9839;BME280;4958;48.150;11.506;2022-10-16T04:05:33;95675.38;;;16.29;83.25
9839;BME280;4958;48.150;11.506;2022-10-16T04:07:59;95677.78;;;16.30;83.07
9839;BME280;4958;48.150;11.506;2022-10-16T04:10:26;95678.00;;;16.29;83.33
9839;BME280;4958;48.150;11.506;2022-10-16T04:12:54;95674.38;;;16.30;83.21
9839;BME280;4958;48.150;11.506;2022-10-16T04:15:21;95679.16;;;16.33;83.28
9839;BME280;4958;48.150;11.506;2022-10-16T04:17:47;95673.75;;;16.34;83.33
9839;BME280;4958;48.150;11.506;2022-10-16T04:20:14;95671.00;;;16.29;83.35
9839;BME280;4958;48.150;11.506;2022-10-16T04:22:40;95681.75;;;16.33;83.86
9839;BME280;4958;48.150;11.506;2022-10-16T04:25:07;95673.19;;;16.32;83.41
9839;BME280;4958;48.150;11.506;2022-10-16T04:27:34;95675.59;;;16.27;82.84
9839;BME280;4958;48.150;11.506;2022-10-16T04:30:02;95680.00;;;16.27;83.24
9839;BME280;4958;48.150;11.506;2022-10-16T04:32:29;95679.78;;;16.28;83.19
9839;BME280;4958;48.150;11.506;2022-10-16T04:34:55;95685.19;;;16.27;82.72
9839;BME280;4958;48.150;11.506;2022-10-16T04:37:23;95693.16;;;16.32;82.68
9839;BME280;4958;48.150;11.506;2022-10-16T04:39:50;95688.75;;;16.32;82.61
9839;BME280;4958;48.150;11.506;2022-10-16T04:42:16;95687.75;;;16.33;82.09
9839;BME280;4958;48.150;11.506;2022-10-16T04:44:43;95694.31;;;16.36;82.39
9839;BME280;4958;48.150;11.506;2022-10-16T04:47:11;95688.91;;;16.37;82.27
9839;BME280;4958;48.150;11.506;2022-10-16T04:49:37;95689.50;;;16.39;81.84
9839;BME280;4958;48.150;11.506;2022-10-16T04:52:04;95678.50;;;16.37;82.40
9839;BME280;4958;48.150;11.506;2022-10-16T04:54:30;95674.19;;;16.31;82.46
9839;BME280;4958;48.150;11.506;2022-10-16T04:56:57;95667.97;;;16.32;82.38
9839;BME280;4958;48.150;11.506;2022-10-16T04:59:24;95677.16;;;16.35;82.36
9839;BME280;4958;48.150;11.506;2022-10-16T05:01:50;95673.75;;;16.34;82.46
9839;BME280;4958;48.150;11.506;2022-10-16T05:04:18;95681.13;;;16.37;82.33
9839;BME280;4958;48.150;11.506;2022-10-16T05:06:45;95681.72;;;16.39;82.31
9839;BME280;4958;48.150;11.506;2022-10-16T05:09:11;95681.13;;;16.37;82.43
9839;BME280;4958;48.150;11.506;2022-10-16T05:11:37;95685.75;;;16.35;81.86
9839;BME280;4958;48.150;11.506;2022-10-16T05:14:04;95688.13;;;16.37;81.98
9839;BME280;4958;48.150;11.506;2022-10-16T05:16:30;95689.91;;;16.36;82.04
9839;BME280;4958;48.150;11.506;2022-10-16T05:18:57;95681.91;;;16.38;82.09
9839;BME280;4958;48.150;11.506;2022-10-16T05:21:25;95681.91;;;16.38;81.70
9839;BME280;4958;48.150;11.506;2022-10-16T05:23:53;95679.75;;;16.35;81.88
9839;BME280;4958;48.150;11.506;2022-10-16T05:26:20;95690.94;;;16.35;81.86
9839;BME280;4958;48.150;11.506;2022-10-16T05:28:47;95693.97;;;16.32;81.65
9839;BME280;4958;48.150;11.506;2022-10-16T05:31:13;95694.56;;;16.34;81.66
9839;BME280;4958;48.150;11.506;2022-10-16T05:33:40;95691.91;;;16.41;81.73
9839;BME280;4958;48.150;11.506;2022-10-16T05:36:08;95697.47;;;16.44;81.46
9839;BME280;4958;48.150;11.506;2022-10-16T05:38:37;95700.88;;;16.45;81.78
9839;BME280;4958;48.150;11.506;2022-10-16T05:41:04;95702.47;;;16.46;81.73
9839;BME280;4958;48.150;11.506;2022-10-16T05:43:32;95705.84;;;16.46;82.51
9839;BME280;4958;48.150;11.506;2022-10-16T05:45:59;95714.44;;;16.47;82.25
9839;BME280;4958;48.150;11.506;2022-10-16T05:48:26;95713.84;;;16.51;82.14
9839;BME280;4958;48.150;11.506;2022-10-16T05:50:57;95716.25;;;16.46;82.71
9839;BME280;4958;48.150;11.506;2022-10-16T05:53:24;95719.25;;;16.50;82.73
9839;BME280;4958;48.150;11.506;2022-10-16T05:55:53;95720.03;;;16.50;82.60
9839;BME280;4958;48.150;11.506;2022-10-16T05:58:20;95714.63;;;16.52;82.48
9839;BME280;4958;48.150;11.506;2022-10-16T06:00:53;95715.44;;;16.52;82.40
9839;BME280;4958;48.150;11.506;2022-10-16T06:03:19;95724.03;;;16.53;82.26
9839;BME280;4958;48.150;11.506;2022-10-16T06:05:46;95717.03;;;16.53;82.26
9839;BME280;4958;48.150;11.506;2022-10-16T06:08:12;95728.22;;;16.54;82.23
9839;BME280;4958;48.150;11.506;2022-10-16T06:10:39;95723.22;;;16.52;82.86
9839;BME280;4958;48.150;11.506;2022-10-16T06:13:06;95723.22;;;16.52;82.65
9839;BME280;4958;48.150;11.506;2022-10-16T06:15:33;95739.41;;;16.54;82.51
9839;BME280;4958;48.150;11.506;2022-10-16T06:17:59;95736.00;;;16.54;82.43
9839;BME280;4958;48.150;11.506;2022-10-16T06:20:26;95739.63;;;16.53;82.51
9839;BME280;4958;48.150;11.506;2022-10-16T06:22:52;95737.81;;;16.53;82.05
9839;BME280;4958;48.150;11.506;2022-10-16T06:25:19;95741.78;;;16.56;81.77
9839;BME280;4958;48.150;11.506;2022-10-16T06:27:45;95742.16;;;16.59;81.81
9839;BME280;4958;48.150;11.506;2022-10-16T06:30:13;95746.72;;;16.71;83.68
9839;BME280;4958;48.150;11.506;2022-10-16T06:32:40;95754.84;;;16.81;81.32
9839;BME280;4958;48.150;11.506;2022-10-16T06:35:07;95752.84;;;16.83;80.61
9839;BME280;4958;48.150;11.506;2022-10-16T06:37:33;95759.03;;;16.82;80.93
9839;BME280;4958;48.150;11.506;2022-10-16T06:40:00;95764.44;;;16.80;81.19
9839;BME280;4958;48.150;11.506;2022-10-16T06:42:29;95758.88;;;16.77;81.25
9839;BME280;4958;48.150;11.506;2022-10-16T06:44:56;95769.28;;;16.77;81.24
9839;BME280;4958;48.150;11.506;2022-10-16T06:47:23;95768.91;;;16.73;81.35
9839;BME280;4958;48.150;11.506;2022-10-16T06:49:50;95772.53;;;16.72;81.41
9839;BME280;4958;48.150;11.506;2022-10-16T06:52:16;95772.31;;;16.74;81.86
9839;BME280;4958;48.150;11.506;2022-10-16T06:54:43;95773.53;;;16.71;82.00
9839;BME280;4958;48.150;11.506;2022-10-16T06:57:09;95779.31;;;16.73;81.87
9839;BME280;4958;48.150;11.506;2022-10-16T06:59:36;95784.06;;;16.76;81.65
9839;BME280;4958;48.150;11.506;2022-10-16T07:02:02;95787.28;;;16.78;81.76
9839;BME280;4958;48.150;11.506;2022-10-16T07:04:30;95790.25;;;16.82;81.25
9839;BME280;4958;48.150;11.506;2022-10-16T07:06:56;95790.22;;;16.88;80.94
9839;BME280;4958;48.150;11.506;2022-10-16T07:09:23;95792.13;;;17.00;80.71
9839;BME280;4958;48.150;11.506;2022-10-16T07:11:50;95791.28;;;17.55;79.34
9839;BME280;4958;48.150;11.506;2022-10-16T07:14:18;95789.03;;;18.20;76.51
9839;BME280;4958;48.150;11.506;2022-10-16T07:16:44;95787.56;;;18.73;73.19
9839;BME280;4958;48.150;11.506;2022-10-16T07:19:11;95795.31;;;18.91;72.40
9839;BME280;4958;48.150;11.506;2022-10-16T07:21:41;95791.81;;;18.85;70.76
9839;BME280;4958;48.150;11.506;2022-10-16T07:24:12;95798.59;;;18.56;72.02
9839;BME280;4958;48.150;11.506;2022-10-16T07:26:39;95802.03;;;18.39;72.41
9839;BME280;4958;48.150;11.506;2022-10-16T07:29:06;95801.66;;;18.35;71.94
9839;BME280;4958;48.150;11.506;2022-10-16T07:31:33;95808.44;;;18.54;71.55
9839;BME280;4958;48.150;11.506;2022-10-16T07:34:00;95809.66;;;18.70;70.62
9839;BME280;4958;48.150;11.506;2022-10-16T07:36:26;95807.84;;;18.71;69.24
9839;BME280;4958;48.150;11.506;2022-10-16T07:38:54;95813.78;;;18.78;70.44
9839;BME280;4958;48.150;11.506;2022-10-16T07:41:21;95820.41;;;18.92;69.82
9839;BME280;4958;48.150;11.506;2022-10-16T07:43:48;95816.41;;;18.89;69.87
9839;BME280;4958;48.150;11.506;2022-10-16T07:46:16;95828.00;;;18.93;68.53
9839;BME280;4958;48.150;11.506;2022-10-16T07:48:43;95827.94;;;19.53;67.74
9839;BME280;4958;48.150;11.506;2022-10-16T07:51:13;95832.06;;;20.36;65.85
9839;BME280;4958;48.150;11.506;2022-10-16T07:53:40;95827.97;;;20.40;64.80
9839;BME280;4958;48.150;11.506;2022-10-16T07:56:08;95831.50;;;20.34;64.78
9839;BME280;4958;48.150;11.506;2022-10-16T07:58:35;95841.13;;;20.85;63.67
9839;BME280;4958;48.150;11.506;2022-10-16T08:01:03;95842.34;;;21.40;59.86
9839;BME280;4958;48.150;11.506;2022-10-16T08:03:30;95833.69;;;21.89;59.47
9839;BME280;4958;48.150;11.506;2022-10-16T08:05:57;95835.03;;;22.30;58.33
9839;BME280;4958;48.150;11.506;2022-10-16T08:08:24;95836.91;;;22.57;57.09
9839;BME280;4958;48.150;11.506;2022-10-16T08:10:51;95847.00;;;22.87;56.96
9839;BME280;4958;48.150;11.506;2022-10-16T08:13:19;95848.19;;;23.01;54.93
9839;BME280;4958;48.150;11.506;2022-10-16T08:15:46;95847.78;;;23.14;54.08
9839;BME280;4958;48.150;11.506;2022-10-16T08:18:13;95844.69;;;23.22;53.48
9839;BME280;4958;48.150;11.506;2022-10-16T08:20:41;95841.91;;;23.34;54.11
9839;BME280;4958;48.150;11.506;2022-10-16T08:23:09;95840.75;;;23.52;54.01
9839;BME280;4958;48.150;11.506;2022-10-16T08:25:37;95845.84;;;23.63;53.59
9839;BME280;4958;48.150;11.506;2022-10-16T08:28:04;95846.91;;;23.62;53.22
9839;BME280;4958;48.150;11.506;2022-10-16T08:30:32;95859.03;;;23.68;53.03
9839;BME280;4958;48.150;11.506;2022-10-16T08:32:59;95851.19;;;23.73;52.61
9839;BME280;4958;48.150;11.506;2022-10-16T08:35:26;95854.09;;;23.77;52.41
9839;BME280;4958;48.150;11.506;2022-10-16T08:37:52;95858.28;;;23.73;51.18
9839;BME280;4958;48.150;11.506;2022-10-16T08:40:22;95858.56;;;23.76;51.52
9839;BME280;4958;48.150;11.506;2022-10-16T08:43:13;95855.25;;;23.91;51.51
9839;BME280;4958;48.150;11.506;2022-10-16T08:46:00;95856.06;;;23.97;50.98
9839;BME280;4958;48.150;11.506;2022-10-16T08:48:36;95868.47;;;24.06;50.91
9839;BME280;4958;48.150;11.506;2022-10-16T08:51:04;95868.84;;;24.20;51.35
9839;BME280;4958;48.150;11.506;2022-10-16T08:53:38;95871.50;;;24.25;49.81
9839;BME280;4958;48.150;11.506;2022-10-16T08:56:09;95873.63;;;24.28;49.03
9839;BME280;4958;48.150;11.506;2022-10-16T08:58:35;95876.34;;;24.38;49.64
9839;BME280;4958;48.150;11.506;2022-10-16T09:01:09;95879.22;;;24.37;48.62
9839;BME280;4958;48.150;11.506;2022-10-16T09:03:51;95872.66;;;24.44;49.12
9839;BME280;4958;48.150;11.506;2022-10-16T09:06:41;95882.94;;;24.46;49.01
9839;BME280;4958;48.150;11.506;2022-10-16T09:09:22;95878.47;;;24.47;49.42
9839;BME280;4958;48.150;11.506;2022-10-16T09:11:55;95876.09;;;24.40;49.08
9839;BME280;4958;48.150;11.506;2022-10-16T09:14:37;95879.47;;;24.35;48.71
9839;BME280;4958;48.150;11.506;2022-10-16T09:17:25;95876.56;;;24.32;48.74
9839;BME280;4958;48.150;11.506;2022-10-16T09:19:58;95872.81;;;24.23;48.44
9839;BME280;4958;48.150;11.506;2022-10-16T09:22:31;95865.50;;;24.30;49.34
9839;BME280;4958;48.150;11.506;2022-10-16T09:25:00;95882.88;;;24.31;48.52
9839;BME280;4958;48.150;11.506;2022-10-16T09:27:36;95876.81;;;24.30;48.69
9839;BME280;4958;48.150;11.506;2022-10-16T09:30:11;95878.38;;;24.31;48.85
9839;BME280;4958;48.150;11.506;2022-10-16T09:32:40;95874.72;;;24.32;48.55
9839;BME280;4958;48.150;11.506;2022-10-16T09:35:14;95869.41;;;24.27;46.40
9839;BME280;4958;48.150;11.506;2022-10-16T09:37:42;95875.22;;;24.29;47.01
9839;BME280;4958;48.150;11.506;2022-10-16T09:40:13;95883.13;;;24.24;46.78
9839;BME280;4958;48.150;11.506;2022-10-16T09:42:40;95889.72;;;24.32;46.49
9839;BME280;4958;48.150;11.506;2022-10-16T09:45:20;95888.75;;;24.48;46.07
9839;BME280;4958;48.150;11.506;2022-10-16T09:47:49;95883.97;;;24.45;46.19
9839;BME280;4958;48.150;11.506;2022-10-16T09:50:22;95889.25;;;24.45;45.96
9839;BME280;4958;48.150;11.506;2022-10-16T09:52:49;95886.59;;;24.40;46.00
9839;BME280;4958;48.150;11.506;2022-10-16T09:55:17;95900.56;;;24.45;46.28
9839;BME280;4958;48.150;11.506;2022-10-16T09:57:50;95894.56;;;24.55;46.70
9839;BME280;4958;48.150;11.506;2022-10-16T10:00:17;95901.72;;;24.60;47.35
9839;BME280;4958;48.150;11.506;2022-10-16T10:02:44;95896.63;;;24.48;46.56
9839;BME280;4958;48.150;11.506;2022-10-16T10:05:20;95894.22;;;24.36;45.54
9839;BME280;4958;48.150;11.506;2022-10-16T10:07:54;95889.75;;;24.37;45.13
9839;BME280;4958;48.150;11.506;2022-10-16T10:10:23;95894.22;;;24.36;45.53
9839;BME280;4958;48.150;11.506;2022-10-16T10:12:50;95893.66;;;24.29;45.35
9839;BME280;4958;48.150;11.506;2022-10-16T10:15:17;95894.94;;;24.27;45.25
9839;BME280;4958;48.150;11.506;2022-10-16T10:17:47;95903.31;;;24.19;45.07
9839;BME280;4958;48.150;11.506;2022-10-16T10:20:27;95894.13;;;24.21;44.93
9839;BME280;4958;48.150;11.506;2022-10-16T10:22:54;95896.69;;;24.16;44.78
9839;BME280;4958;48.150;11.506;2022-10-16T10:25:49;95901.38;;;24.09;44.62
9839;BME280;4958;48.150;11.506;2022-10-16T10:28:37;95900.38;;;24.15;44.78
9839;BME280;4958;48.150;11.506;2022-10-16T10:31:14;95905.19;;;24.23;45.55
9839;BME280;4958;48.150;11.506;2022-10-16T10:33:47;95902.84;;;24.27;46.86
9839;BME280;4958;48.150;11.506;2022-10-16T10:36:32;95898.63;;;24.26;46.24
9839;BME280;4958;48.150;11.506;2022-10-16T10:39:04;95893.63;;;24.24;45.84
9839;BME280;4958;48.150;11.506;2022-10-16T10:42:01;95894.41;;;24.25;45.76
9839;BME280;4958;48.150;11.506;2022-10-16T10:44:49;95890.69;;;24.21;45.39
9839;BME280;4958;48.150;11.506;2022-10-16T10:47:27;95898.91;;;24.24;46.50
9839;BME280;4958;48.150;11.506;2022-10-16T10:50:04;95899.41;;;24.26;45.14
9839;BME280;4958;48.150;11.506;2022-10-16T10:52:42;95901.28;;;24.31;44.79
9839;BME280;4958;48.150;11.506;2022-10-16T10:55:15;95896.78;;;24.26;45.09
9839;BME280;4958;48.150;11.506;2022-10-16T10:57:57;95894.13;;;24.21;44.88
9839;BME280;4958;48.150;11.506;2022-10-16T11:00:31;95892.59;;;24.30;46.15
9839;BME280;4958;48.150;11.506;2022-10-16T11:03:13;95900.50;;;24.30;44.92
9839;BME280;4958;48.150;11.506;2022-10-16T11:05:49;95890.75;;;24.31;45.01
9839;BME280;4958;48.150;11.506;2022-10-16T11:08:19;95899.69;;;24.30;44.33
9839;BME280;4958;48.150;11.506;2022-10-16T11:10:52;95886.03;;;24.33;45.32
9839;BME280;4958;48.150;11.506;2022-10-16T11:13:26;95894.47;;;24.35;46.43
9839;BME280;4958;48.150;11.506;2022-10-16T11:15:58;95891.56;;;24.31;43.68
9839;BME280;4958;48.150;11.506;2022-10-16T11:18:30;95887.63;;;24.34;44.52
9839;BME280;4958;48.150;11.506;2022-10-16T11:21:00;95890.28;;;24.39;45.14
9839;BME280;4958;48.150;11.506;2022-10-16T11:23:31;95890.03;;;24.40;44.09
9839;BME280;4958;48.150;11.506;2022-10-16T11:26:09;95888.75;;;24.43;44.73
9839;BME280;4958;48.150;11.506;2022-10-16T11:28:42;95896.09;;;24.41;43.57
9839;BME280;4958;48.150;11.506;2022-10-16T11:31:14;95894.41;;;24.25;42.70
9839;BME280;4958;48.150;11.506;2022-10-16T11:33:45;95891.81;;;24.30;42.84
9839;BME280;4958;48.150;11.506;2022-10-16T11:36:17;95882.59;;;24.32;41.69
9839;BME280;4958;48.150;11.506;2022-10-16T11:38:51;95886.31;;;24.36;42.39
9839;BME280;4958;48.150;11.506;2022-10-16T11:41:25;95888.75;;;24.43;42.60
9839;BME280;4958;48.150;11.506;2022-10-16T11:44:04;95882.16;;;24.51;42.45
9839;BME280;4958;48.150;11.506;2022-10-16T11:46:32;95881.66;;;24.54;42.96
9839;BME280;4958;48.150;11.506;2022-10-16T11:49:04;95885.38;;;24.58;42.54
9839;BME280;4958;48.150;11.506;2022-10-16T11:51:38;95889.88;;;24.62;42.64
9839;BME280;4958;48.150;11.506;2022-10-16T11:54:16;95889.34;;;24.65;41.95
9839;BME280;4958;48.150;11.506;2022-10-16T11:56:48;95887.25;;;24.62;41.24
9839;BME280;4958;48.150;11.506;2022-10-16T11:59:22;95890.66;;;24.68;41.03
9839;BME280;4958;48.150;11.506;2022-10-16T12:01:56;95891.25;;;24.80;41.65
9839;BME280;4958;48.150;11.506;2022-10-16T12:04:29;95890.22;;;24.91;41.77
9839;BME280;4958;48.150;11.506;2022-10-16T12:07:03;95884.50;;;24.99;42.01
9839;BME280;4958;48.150;11.506;2022-10-16T12:09:36;95882.63;;;24.95;41.94
9839;BME280;4958;48.150;11.506;2022-10-16T12:12:04;95887.53;;;24.76;41.88
9839;BME280;4958;48.150;11.506;2022-10-16T12:14:37;95889.06;;;24.57;42.66
9839;BME280;4958;48.150;11.506;2022-10-16T12:17:24;95891.09;;;24.44;43.29
9839;BME280;4958;48.150;11.506;2022-10-16T12:20:00;95883.47;;;24.48;43.51
9839;BME280;4958;48.150;11.506;2022-10-16T12:22:29;95879.56;;;24.56;43.75
9839;BME280;4958;48.150;11.506;2022-10-16T12:24:57;95880.38;;;24.66;43.66
9839;BME280;4958;48.150;11.506;2022-10-16T12:27:28;95877.25;;;24.74;43.04
9839;BME280;4958;48.150;11.506;2022-10-16T12:29:57;95874.66;;;24.85;42.92
9839;BME280;4958;48.150;11.506;2022-10-16T12:32:29;95878.94;;;24.96;44.32
9839;BME280;4958;48.150;11.506;2022-10-16T12:34:57;95879.47;;;25.03;44.89
9839;BME280;4958;48.150;11.506;2022-10-16T12:37:26;95875.28;;;25.07;42.99
9839;BME280;4958;48.150;11.506;2022-10-16T12:39:54;95873.97;;;25.09;42.91
9839;BME280;4958;48.150;11.506;2022-10-16T12:42:33;95878.44;;;25.09;41.37
9839;BME280;4958;48.150;11.506;2022-10-16T12:45:00;95878.16;;;25.05;41.62
9839;BME280;4958;48.150;11.506;2022-10-16T12:47:38;95873.69;;;25.01;41.30
9839;BME280;4958;48.150;11.506;2022-10-16T12:50:25;95877.66;;;25.08;41.65
9839;BME280;4958;48.150;11.506;2022-10-16T12:52:52;95874.25;;;25.13;41.83
9839;BME280;4958;48.150;11.506;2022-10-16T12:55:20;95873.69;;;25.06;40.46
9839;BME280;4958;48.150;11.506;2022-10-16T12:58:00;95864.19;;;25.05;39.60
9839;BME280;4958;48.150;11.506;2022-10-16T13:00:37;95865.28;;;25.14;40.51
9839;BME280;4958;48.150;11.506;2022-10-16T13:03:29;95872.41;;;25.29;40.43
9839;BME280;4958;48.150;11.506;2022-10-16T13:06:11;95876.13;;;25.33;38.36
9839;BME280;4958;48.150;11.506;2022-10-16T13:08:56;95871.88;;;25.42;37.79
9839;BME280;4958;48.150;11.506;2022-10-16T13:11:35;95866.91;;;25.51;37.25
9839;BME280;4958;48.150;11.506;2022-10-16T13:14:27;95872.19;;;25.56;37.70
9839;BME280;4958;48.150;11.506;2022-10-16T13:17:06;95863.50;;;25.70;38.06
9839;BME280;4958;48.150;11.506;2022-10-16T13:19:42;95870.06;;;25.83;37.77
9839;BME280;4958;48.150;11.506;2022-10-16T13:22:16;95866.38;;;25.94;37.81
9839;BME280;4958;48.150;11.506;2022-10-16T13:24:56;95871.34;;;26.01;36.40
9839;BME280;4958;48.150;11.506;2022-10-16T13:27:34;95871.34;;;26.01;37.09